Time,TemperatureF,DewpointF,PressureIn,WindDirection,WindDirectionDegrees,WindSpeedMPH,WindSpeedGustMPH,Humidity,HourlyPrecipIn,Conditions,Clouds,dailyrainin,SoftwareType,DateUTC
2013-01-17 00:09:00,32.7,31.0,30.18,West,271,0.0,0.0,93,0.00,,,0.00,weatherlink.com 1.10,2013-01-17 06:09:00,
2013-01-17 00:24:00,32.8,31.0,30.19,West,271,0.0,0.0,93,0.00,,,0.00,weatherlink.com 1.10,2013-01-17 06:24:00,
2013-01-17 00:39:00,32.8,31.0,30.18,West,271,0.0,0.0,93,0.00,,,0.00,weatherlink.com 1.10,2013-01-17 06:39:00,
2013-01-17 00:54:00,32.8,31.0,30.18,West,271,0.0,0.0,93,0.00,,,0.00,weatherlink.com 1.10,2013-01-17 06:54:00,
2013-01-17 01:09:00,32.8,31.0,30.19,West,271,0.0,0.0,93,0.00,,,0.00,weatherlink.com 1.10,2013-01-17 07:09:00,
2013-01-17 01:24:00,32.7,31.0,30.18,West,273,0.0,0.0,93,0.00,,,0.00,weatherlink.com 1.10,2013-01-17 07:24:00,
2013-01-17 01:39:00,32.5,31.0,30.17,West,274,0.0,0.0,92,0.00,,,0.00,weatherlink.com 1.10,2013-01-17 07:39:00,
2013-01-17 01:54:00,32.3,30.0,30.18,WNW,286,0.0,0.0,90,0.00,,,0.00,weatherlink.com 1.10,2013-01-17 07:54:00,
2013-01-17 02:09:00,32.5,29.0,30.18,West,278,0.0,3.0,88,0.00,,,0.00,weatherlink.com 1.10,2013-01-17 08:09:00,
2013-01-17 02:24:00,32.5,29.0,30.18,NW,315,1.0,2.0,87,0.00,,,0.00,weatherlink.com 1.10,2013-01-17 08:24:00,
2013-01-17 02:39:00,32.6,30.0,30.17,West,281,0.0,1.0,88,0.00,,,0.00,weatherlink.com 1.10,2013-01-17 08:39:00,
2013-01-17 02:54:00,32.5,30.0,30.17,WNW,283,0.0,1.0,90,0.00,,,0.00,weatherlink.com 1.10,2013-01-17 08:54:00,
2013-01-17 03:09:00,32.5,30.0,30.17,NW,311,0.0,1.0,91,0.00,,,0.00,weatherlink.com 1.10,2013-01-17 09:09:00,
2013-01-17 03:24:00,32.6,30.0,30.17,NW,325,1.0,2.0,90,0.00,,,0.00,weatherlink.com 1.10,2013-01-17 09:24:00,
2013-01-17 03:39:00,32.8,30.0,30.18,West,266,1.0,2.0,89,0.00,,,0.00,weatherlink.com 1.10,2013-01-17 09:39:00,
2013-01-17 03:54:00,33.0,30.0,30.18,WSW,257,0.0,2.0,88,0.00,,,0.00,weatherlink.com 1.10,2013-01-17 09:54:00,
2013-01-17 04:09:00,33.1,30.0,30.19,WSW,243,0.0,1.0,88,0.00,,,0.00,weatherlink.com 1.10,2013-01-17 10:09:00,
2013-01-17 04:24:00,33.1,29.0,30.19,West,278,1.0,2.0,86,0.00,,,0.00,weatherlink.com 1.10,2013-01-17 10:24:00,
2013-01-17 04:39:00,33.0,29.0,30.19,WSW,255,0.0,3.0,86,0.00,,,0.00,weatherlink.com 1.10,2013-01-17 10:39:00,
2013-01-17 04:54:00,32.9,30.0,30.20,SW,214,0.0,1.0,87,0.00,,,0.00,weatherlink.com 1.10,2013-01-17 10:54:00,
2013-01-17 05:09:00,32.9,30.0,30.19,WSW,240,0.0,1.0,87,0.00,,,0.00,weatherlink.com 1.10,2013-01-17 11:09:00,
2013-01-17 05:25:00,32.9,30.0,30.19,West,281,0.0,1.0,87,0.00,,,0.00,weatherlink.com 1.10,2013-01-17 11:25:00,
2013-01-17 05:39:00,32.7,29.0,30.19,WSW,257,1.0,1.0,87,0.00,,,0.00,weatherlink.com 1.10,2013-01-17 11:39:00,
2013-01-17 05:54:00,32.7,29.0,30.19,WNW,295,0.0,1.0,86,0.00,,,0.00,weatherlink.com 1.10,2013-01-17 11:54:00,
2013-01-17 06:09:00,32.5,29.0,30.20,WSW,257,0.0,1.0,87,0.00,,,0.00,weatherlink.com 1.10,2013-01-17 12:09:00,
2013-01-17 06:24:00,32.4,29.0,30.21,WSW,257,0.0,0.0,87,0.00,,,0.00,weatherlink.com 1.10,2013-01-17 12:24:00,
2013-01-17 06:39:00,32.5,29.0,30.20,WNW,297,0.0,2.0,86,0.00,,,0.00,weatherlink.com 1.10,2013-01-17 12:39:00,
2013-01-17 06:54:00,32.7,29.0,30.22,NW,314,0.0,1.0,86,0.00,,,0.00,weatherlink.com 1.10,2013-01-17 12:54:00,
2013-01-17 07:09:00,32.7,29.0,30.22,NW,316,0.0,2.0,85,0.00,,,0.00,weatherlink.com 1.10,2013-01-17 13:09:00,
2013-01-17 07:24:00,32.6,29.0,30.23,WNW,285,0.0,0.0,85,0.00,,,0.00,weatherlink.com 1.10,2013-01-17 13:24:00,
2013-01-17 07:39:00,33.0,29.0,30.23,WNW,287,2.0,2.0,85,0.00,,,0.00,weatherlink.com 1.10,2013-01-17 13:39:00,
2013-01-17 07:54:00,33.2,29.0,30.24,NNW,339,0.0,2.0,85,0.00,,,0.00,weatherlink.com 1.10,2013-01-17 13:54:00,
2013-01-17 08:09:00,33.4,29.0,30.24,NW,304,0.0,2.0,84,0.00,,,0.00,weatherlink.com 1.10,2013-01-17 14:09:00,
2013-01-17 08:24:00,33.5,30.0,30.25,NW,324,0.0,2.0,85,0.00,,,0.00,weatherlink.com 1.10,2013-01-17 14:24:00,
2013-01-17 08:39:00,33.6,30.0,30.25,NNW,335,1.0,3.0,85,0.00,,,0.00,weatherlink.com 1.10,2013-01-17 14:39:00,
2013-01-17 08:54:00,34.1,30.0,30.26,North,8,1.0,3.0,83,0.00,,,0.00,weatherlink.com 1.10,2013-01-17 14:54:00,
2013-01-17 09:09:00,34.5,30.0,30.27,ENE,57,2.0,3.0,83,0.00,,,0.00,weatherlink.com 1.10,2013-01-17 15:09:00,
2013-01-17 09:25:00,35.0,30.0,30.28,NE,40,2.0,6.0,82,0.00,,,0.00,weatherlink.com 1.10,2013-01-17 15:25:00,
2013-01-17 09:40:00,35.3,31.0,30.29,NNE,32,0.0,5.0,83,0.00,,,0.00,weatherlink.com 1.10,2013-01-17 15:40:00,
2013-01-17 09:56:00,35.7,31.0,30.29,North,1,0.0,2.0,84,0.00,,,0.00,weatherlink.com 1.10,2013-01-17 15:56:00,
2013-01-17 10:10:00,35.9,32.0,30.29,NNW,331,0.0,4.0,84,0.00,,,0.00,weatherlink.com 1.10,2013-01-17 16:10:00,
2013-01-17 10:25:00,36.1,31.0,30.29,ENE,70,0.0,4.0,83,0.00,,,0.00,weatherlink.com 1.10,2013-01-17 16:25:00,
2013-01-17 10:40:00,36.4,32.0,30.28,WNW,285,2.0,4.0,84,0.00,,,0.00,weatherlink.com 1.10,2013-01-17 16:40:00,
2013-01-17 10:55:00,36.8,32.0,30.28,WSW,250,0.0,3.0,83,0.00,,,0.00,weatherlink.com 1.10,2013-01-17 16:55:00,
2013-01-17 11:10:00,37.7,33.0,30.27,NNE,32,3.0,4.0,84,0.00,,,0.00,weatherlink.com 1.10,2013-01-17 17:10:00,
2013-01-17 11:25:00,38.5,33.0,30.27,NNW,340,1.0,4.0,81,0.00,,,0.00,weatherlink.com 1.10,2013-01-17 17:25:00,
2013-01-17 11:40:00,39.8,34.0,30.26,NE,54,2.0,5.0,81,0.00,,,0.00,weatherlink.com 1.10,2013-01-17 17:40:00,
2013-01-17 11:55:00,41.3,35.0,30.26,NW,323,1.0,3.0,79,0.00,,,0.00,weatherlink.com 1.10,2013-01-17 17:55:00,
2013-01-17 12:10:00,42.0,35.0,30.26,NNW,328,1.0,5.0,76,0.00,,,0.00,weatherlink.com 1.10,2013-01-17 18:10:00,
2013-01-17 12:25:00,43.4,36.0,30.26,NE,53,1.0,4.0,76,0.00,,,0.00,weatherlink.com 1.10,2013-01-17 18:25:00,
2013-01-17 12:40:00,44.5,36.0,30.26,NW,311,1.0,4.0,72,0.00,,,0.00,weatherlink.com 1.10,2013-01-17 18:40:00,
2013-01-17 12:55:00,45.7,37.0,30.26,West,271,3.0,5.0,71,0.00,,,0.00,weatherlink.com 1.10,2013-01-17 18:55:00,
2013-01-17 13:10:00,46.8,37.0,30.27,WSW,255,4.0,8.0,68,0.00,,,0.00,weatherlink.com 1.10,2013-01-17 19:10:00,
2013-01-17 13:25:00,47.4,36.0,30.27,NNE,18,2.0,8.0,66,0.00,,,0.00,weatherlink.com 1.10,2013-01-17 19:25:00,
2013-01-17 13:40:00,47.5,36.0,30.27,SSE,167,2.0,5.0,65,0.01,,,0.01,weatherlink.com 1.10,2013-01-17 19:40:00,
2013-01-17 13:55:00,47.4,36.0,30.28,North,351,2.0,7.0,65,0.02,,,0.02,weatherlink.com 1.10,2013-01-17 19:55:00,
2013-01-17 14:10:00,47.5,36.0,30.28,West,262,1.0,4.0,64,0.02,,,0.02,weatherlink.com 1.10,2013-01-17 20:10:00,
2013-01-17 14:25:00,47.5,37.0,30.29,North,358,0.0,5.0,66,0.03,,,0.03,weatherlink.com 1.10,2013-01-17 20:25:00,
2013-01-17 14:40:00,47.2,37.0,30.30,North,358,1.0,7.0,67,0.02,,,0.03,weatherlink.com 1.10,2013-01-17 20:40:00,
2013-01-17 14:55:00,46.7,36.0,30.32,NNE,30,4.0,9.0,67,0.02,,,0.04,weatherlink.com 1.10,2013-01-17 20:55:00,
2013-01-17 15:10:00,47.1,36.0,30.32,NE,53,1.0,9.0,66,0.02,,,0.04,weatherlink.com 1.10,2013-01-17 21:10:00,
2013-01-17 15:25:00,47.4,36.0,30.33,NW,323,3.0,6.0,66,0.01,,,0.04,weatherlink.com 1.10,2013-01-17 21:25:00,
2013-01-17 15:40:00,46.9,36.0,30.34,NE,56,1.0,8.0,67,0.02,,,0.05,weatherlink.com 1.10,2013-01-17 21:40:00,
2013-01-17 15:56:00,46.9,37.0,30.35,East,95,1.0,7.0,68,0.01,,,0.05,weatherlink.com 1.10,2013-01-17 21:56:00,
2013-01-17 16:11:00,46.8,37.0,30.36,NW,321,3.0,5.0,69,0.01,,,0.05,weatherlink.com 1.10,2013-01-17 22:11:00,
2013-01-17 16:26:00,46.5,37.0,30.37,NNE,27,0.0,4.0,70,0.01,,,0.05,weatherlink.com 1.10,2013-01-17 22:26:00,
2013-01-17 16:41:00,45.9,37.0,30.37,North,356,3.0,7.0,72,0.00,,,0.05,weatherlink.com 1.10,2013-01-17 22:41:00,
2013-01-17 16:56:00,45.3,37.0,30.38,NW,304,1.0,3.0,73,0.00,,,0.05,weatherlink.com 1.10,2013-01-17 22:56:00,
2013-01-17 17:11:00,44.7,37.0,30.39,SW,224,1.0,5.0,75,0.00,,,0.05,weatherlink.com 1.10,2013-01-17 23:11:00,
2013-01-17 17:26:00,44.1,37.0,30.40,NNW,342,0.0,5.0,76,0.00,,,0.05,weatherlink.com 1.10,2013-01-17 23:26:00,
2013-01-17 17:41:00,43.4,37.0,30.41,North,8,0.0,1.0,77,0.00,,,0.05,weatherlink.com 1.10,2013-01-17 23:41:00,
2013-01-17 17:56:00,42.8,37.0,30.41,North,354,1.0,2.0,79,0.00,,,0.05,weatherlink.com 1.10,2013-01-17 23:56:00,
2013-01-17 18:11:00,42.5,36.0,30.42,NNW,340,0.0,3.0,79,0.00,,,0.05,weatherlink.com 1.10,2013-01-18 00:11:00,
2013-01-17 18:26:00,41.6,36.0,30.43,ENE,61,0.0,2.0,81,0.00,,,0.05,weatherlink.com 1.10,2013-01-18 00:26:00,
2013-01-17 18:42:00,41.0,36.0,30.44,SE,143,2.0,3.0,82,0.00,,,0.05,weatherlink.com 1.10,2013-01-18 00:42:00,
2013-01-17 18:56:00,40.9,36.0,30.45,NE,41,2.0,3.0,81,0.00,,,0.05,weatherlink.com 1.10,2013-01-18 00:56:00,
2013-01-17 19:11:00,40.4,35.0,30.46,ENE,70,0.0,2.0,81,0.00,,,0.05,weatherlink.com 1.10,2013-01-18 01:11:00,
2013-01-17 19:26:00,39.9,35.0,30.46,NE,37,0.0,2.0,82,0.00,,,0.05,weatherlink.com 1.10,2013-01-18 01:26:00,
2013-01-17 19:41:00,39.4,34.0,30.47,NE,43,2.0,5.0,82,0.00,,,0.05,weatherlink.com 1.10,2013-01-18 01:41:00,
2013-01-17 19:56:00,38.9,34.0,30.47,NNE,32,1.0,1.0,81,0.00,,,0.05,weatherlink.com 1.10,2013-01-18 01:56:00,
2013-01-17 20:11:00,38.7,33.0,30.48,ENE,57,0.0,2.0,80,0.00,,,0.05,weatherlink.com 1.10,2013-01-18 02:11:00,
2013-01-17 20:26:00,38.2,33.0,30.48,NE,43,0.0,1.0,81,0.00,,,0.05,weatherlink.com 1.10,2013-01-18 02:26:00,
2013-01-17 20:41:00,37.7,32.0,30.49,NE,46,0.0,1.0,81,0.00,,,0.05,weatherlink.com 1.10,2013-01-18 02:41:00,
2013-01-17 20:56:00,36.8,32.0,30.49,NE,43,0.0,0.0,82,0.00,,,0.05,weatherlink.com 1.10,2013-01-18 02:56:00,
2013-01-17 21:11:00,36.5,32.0,30.50,North,351,0.0,2.0,83,0.00,,,0.05,weatherlink.com 1.10,2013-01-18 03:11:00,
2013-01-17 21:26:00,35.8,31.0,30.51,North,351,0.0,0.0,83,0.00,,,0.05,weatherlink.com 1.10,2013-01-18 03:26:00,
2013-01-17 21:41:00,35.2,31.0,30.51,North,351,0.0,0.0,84,0.00,,,0.05,weatherlink.com 1.10,2013-01-18 03:41:00,
2013-01-17 21:56:00,35.1,31.0,30.51,North,351,0.0,0.0,84,0.00,,,0.05,weatherlink.com 1.10,2013-01-18 03:56:00,
2013-01-17 22:11:00,35.0,31.0,30.52,NNW,327,1.0,1.0,84,0.00,,,0.05,weatherlink.com 1.10,2013-01-18 04:11:00,
2013-01-17 22:26:00,34.6,30.0,30.52,NNW,327,0.0,0.0,83,0.00,,,0.05,weatherlink.com 1.10,2013-01-18 04:26:00,
2013-01-17 22:41:00,33.7,29.0,30.52,NNW,327,0.0,0.0,84,0.00,,,0.05,weatherlink.com 1.10,2013-01-18 04:41:00,
2013-01-17 22:57:00,33.5,29.0,30.52,NNW,327,0.0,1.0,84,0.00,,,0.05,weatherlink.com 1.10,2013-01-18 04:57:00,
2013-01-17 23:11:00,33.2,29.0,30.52,NNW,327,0.0,0.0,84,0.00,,,0.05,weatherlink.com 1.10,2013-01-18 05:11:00,
2013-01-17 23:27:00,32.4,28.0,30.52,NNW,327,0.0,0.0,85,0.00,,,0.05,weatherlink.com 1.10,2013-01-18 05:27:00,
2013-01-17 23:41:00,32.7,29.0,30.51,NNW,328,0.0,0.0,85,0.00,,,0.05,weatherlink.com 1.10,2013-01-18 05:41:00,
2013-01-17 23:56:00,32.4,28.0,30.52,NNW,328,0.0,0.0,84,0.00,,,0.05,weatherlink.com 1.10,2013-01-18 05:56:00,